Terminal Aerodrome Forecast
Issued by NWS

Home | Current Version | Previous Version | Graphics & Text | Print | Product List | Glossary On
Versions: 1 2 3 4 5 6 7 8 9 10 11 12 13 14 15 16 17 18 19
000
FTUS43 KGRB 281700
TAFAUW
TAF
KAUW 281729Z 2818/2918 14005KT P6SM OVC007
     FM281930 14007KT P6SM SCT007 OVC016
     FM282100 14008KT P6SM OVC050
     FM282330 12007KT 4SM -SHRA BR OVC025
     FM290500 12004KT 3SM RA BR OVC015 PROB30 2910/2914 1SM TSRA
      BKN009CB
     FM291400 17007KT 5SM -SHRA SCT014 OVC021
      TEMPO 2914/2918 2SM TSRA OVC014CB=

USA.gov is the U.S. government's official web portal to all federal, state and local government web resources and services.